createdAt,value
2023-02-24T00:02:01.157Z,46.33
2023-02-24T00:04:35.269Z,38.97
2023-02-24T00:07:18.882Z,46.40
2023-02-24T00:09:51.640Z,48.00
2023-02-24T00:12:24.915Z,42.80
2023-02-24T00:14:58.277Z,43.33
2023-02-24T00:17:36.413Z,49.13
2023-02-24T00:20:12.089Z,35.90
2023-02-24T00:22:47.371Z,38.20
2023-02-24T00:25:21.481Z,41.83
2023-02-24T00:27:55.514Z,38.97
2023-02-24T00:30:29.655Z,38.33
2023-02-24T00:33:06.434Z,32.50
2023-02-24T00:35:40.999Z,34.63
2023-02-24T00:38:15.175Z,48.13
2023-02-24T00:40:48.100Z,36.77
2023-02-24T00:43:20.794Z,28.80
2023-02-24T00:45:53.856Z,34.97
2023-02-24T00:48:28.318Z,30.33
2023-02-24T00:51:02.096Z,28.03
2023-02-24T00:53:36.321Z,21.77
2023-02-24T00:56:11.990Z,17.00
2023-02-24T00:58:45.373Z,21.23
2023-02-24T01:01:20.126Z,23.13
2023-02-24T01:03:56.316Z,16.80
2023-02-24T01:06:29.934Z,13.87
2023-02-24T01:09:08.234Z,15.27
2023-02-24T01:11:59.115Z,16.53
2023-02-24T01:14:32.703Z,13.80
2023-02-24T01:17:06.001Z,11.53
2023-02-24T01:19:38.727Z,10.70
2023-02-24T01:22:14.855Z,15.53
2023-02-24T01:24:49.443Z,13.07
2023-02-24T01:27:22.286Z,16.30
2023-02-24T01:29:55.118Z,16.20
2023-02-24T01:32:28.869Z,16.93
2023-02-24T01:35:01.911Z,9.53
2023-02-24T01:37:34.660Z,13.23
2023-02-24T01:40:17.946Z,14.47
2023-02-24T01:42:50.943Z,16.60
2023-02-24T01:45:25.797Z,15.67
2023-02-24T01:48:05.243Z,13.43
2023-02-24T01:50:39.573Z,16.73
2023-02-24T01:53:13.965Z,9.30
2023-02-24T01:55:49.918Z,12.93
2023-02-24T01:58:25.007Z,10.53
2023-02-24T02:00:58.375Z,6.50
2023-02-24T02:03:32.387Z,11.90
2023-02-24T02:06:06.435Z,16.17
2023-02-24T02:08:40.253Z,9.90
2023-02-24T02:11:15.197Z,8.87
2023-02-24T02:13:50.705Z,11.37
2023-02-24T02:16:55.701Z,8.67
2023-02-24T02:19:48.047Z,10.37
2023-02-24T02:22:46.038Z,15.27
2023-02-24T02:25:26.521Z,4.87
2023-02-24T02:28:14.351Z,13.77
2023-02-24T02:30:52.662Z,4.83
2023-02-24T02:33:35.042Z,14.33
2023-02-24T02:36:13.857Z,18.43
2023-02-24T02:38:54.069Z,19.23
2023-02-24T02:41:29.500Z,5.90
2023-02-24T02:44:07.386Z,7.80
2023-02-24T02:46:43.564Z,9.17
2023-02-24T02:49:18.196Z,7.57
2023-02-24T02:51:54.672Z,5.50
2023-02-24T02:54:29.729Z,9.13
2023-02-24T02:57:05.512Z,8.10
2023-02-24T02:59:42.115Z,5.53
2023-02-24T03:02:17.523Z,11.13
2023-02-24T03:04:52.380Z,5.03
2023-02-24T03:07:31.104Z,4.33
2023-02-24T03:10:10.674Z,7.57
2023-02-24T03:12:46.979Z,4.23
2023-02-24T03:15:23.643Z,9.67
2023-02-24T03:18:10.221Z,8.73
2023-02-24T03:20:46.780Z,9.00
2023-02-24T03:23:25.498Z,9.27
2023-02-24T03:26:05.900Z,11.50
2023-02-24T03:28:42.420Z,10.60
2023-02-24T03:31:18.257Z,8.13
2023-02-24T03:33:58.492Z,6.13
2023-02-24T03:36:31.286Z,15.30
2023-02-24T03:39:11.839Z,7.13
2023-02-24T03:41:47.378Z,5.27
2023-02-24T03:44:20.110Z,9.33
2023-02-24T03:46:55.040Z,9.07
2023-02-24T03:49:28.168Z,8.57
2023-02-24T03:52:10.669Z,9.50
2023-02-24T03:54:54.425Z,4.13
2023-02-24T03:57:34.686Z,12.00
2023-02-24T04:00:22.668Z,4.73
2023-02-24T04:02:59.555Z,13.97
2023-02-24T04:05:34.049Z,7.93
2023-02-24T04:08:10.626Z,13.17
2023-02-24T04:10:52.553Z,4.50
2023-02-24T04:13:35.194Z,10.93
2023-02-24T04:16:12.068Z,8.57
2023-02-24T04:18:50.894Z,10.50
2023-02-24T04:21:23.927Z,9.83
2023-02-24T04:23:56.869Z,9.37
2023-02-24T04:26:31.325Z,10.37
2023-02-24T04:29:07.596Z,9.67
2023-02-24T04:31:40.742Z,12.60
2023-02-24T04:34:19.979Z,11.53
2023-02-24T04:36:52.868Z,12.23
2023-02-24T04:39:26.054Z,7.13
2023-02-24T04:42:03.338Z,20.20
2023-02-24T04:44:38.338Z,13.40
2023-02-24T04:47:11.451Z,8.37
2023-02-24T04:49:46.415Z,11.87
2023-02-24T04:52:20.730Z,8.73
2023-02-24T04:54:53.432Z,6.60
2023-02-24T04:57:27.650Z,10.40
2023-02-24T05:00:00.807Z,11.17
2023-02-24T05:02:33.492Z,7.97
2023-02-24T05:05:08.921Z,14.77
2023-02-24T05:07:41.640Z,7.50
2023-02-24T05:10:15.056Z,15.20
2023-02-24T05:12:49.358Z,8.57
2023-02-24T05:15:31.040Z,7.93
2023-02-24T05:18:07.513Z,11.17
2023-02-24T05:21:00.831Z,7.33
2023-02-24T05:23:35.996Z,8.13
2023-02-24T05:26:11.780Z,7.17
2023-02-24T05:28:49.037Z,9.23
2023-02-24T05:31:23.960Z,6.33
2023-02-24T05:33:58.587Z,10.43
2023-02-24T05:36:32.853Z,7.33
2023-02-24T05:39:07.579Z,8.50
2023-02-24T05:41:44.076Z,6.07
2023-02-24T05:44:23.671Z,6.83
2023-02-24T05:46:58.844Z,6.00
2023-02-24T05:49:34.129Z,5.67
2023-02-24T05:52:09.166Z,4.83
2023-02-24T05:54:42.622Z,3.77
2023-02-24T05:57:17.083Z,6.87
2023-02-24T05:59:51.764Z,5.67
2023-02-24T06:02:29.227Z,10.23
2023-02-24T06:05:08.850Z,4.87
2023-02-24T06:07:43.114Z,7.70
2023-02-24T06:10:15.896Z,4.33
2023-02-24T06:12:48.734Z,5.20
2023-02-24T06:15:23.495Z,6.03
2023-02-24T06:17:57.060Z,7.63
2023-02-24T06:20:32.865Z,5.00
2023-02-24T06:23:05.691Z,4.53
2023-02-24T06:25:39.211Z,6.40
2023-02-24T06:28:11.915Z,4.77
2023-02-24T06:30:47.473Z,7.30
2023-02-24T06:33:22.442Z,6.47
2023-02-24T06:35:55.326Z,6.67
2023-02-24T06:38:28.844Z,4.63
2023-02-24T06:41:31.127Z,6.93
2023-02-24T06:44:05.663Z,7.13
2023-02-24T06:46:41.248Z,8.37
2023-02-24T06:49:17.295Z,5.70
2023-02-24T06:51:54.650Z,8.23
2023-02-24T06:54:29.078Z,5.83
2023-02-24T06:57:03.198Z,6.13
2023-02-24T06:59:39.826Z,7.87
2023-02-24T07:02:13.802Z,8.47
2023-02-24T07:04:48.974Z,6.33
2023-02-24T07:07:22.576Z,11.30
2023-02-24T07:09:58.016Z,10.20
2023-02-24T07:12:34.153Z,4.83
2023-02-24T07:15:08.372Z,8.03
2023-02-24T07:17:43.201Z,4.57
2023-02-24T07:20:26.141Z,6.60
2023-02-24T07:22:58.868Z,3.33
2023-02-24T07:25:33.728Z,6.37
2023-02-24T07:28:07.444Z,6.43
2023-02-24T07:30:41.438Z,6.10
2023-02-24T07:33:15.682Z,5.57
2023-02-24T07:35:50.897Z,2.47
2023-02-24T07:38:23.631Z,9.50
2023-02-24T07:40:58.952Z,7.17
2023-02-24T07:43:34.598Z,10.20
2023-02-24T07:46:09.092Z,6.70
2023-02-24T07:48:43.444Z,5.90
2023-02-24T07:51:17.357Z,4.10
2023-02-24T07:53:52.311Z,7.67
2023-02-24T07:56:27.176Z,4.03
2023-02-24T07:59:01.128Z,9.90
2023-02-24T08:01:38.905Z,5.30
2023-02-24T08:04:15.879Z,7.37
2023-02-24T08:06:56.051Z,10.97
2023-02-24T08:09:47.197Z,7.47
2023-02-24T08:12:21.738Z,5.60
2023-02-24T08:15:00.097Z,5.87
2023-02-24T08:17:33.492Z,8.47
2023-02-24T08:20:24.293Z,4.67
2023-02-24T08:22:57.392Z,8.13
2023-02-24T08:25:38.123Z,5.73
2023-02-24T08:28:14.396Z,10.53
2023-02-24T08:30:48.702Z,3.73
2023-02-24T08:33:25.140Z,2.33
2023-02-24T08:36:02.624Z,10.47
2023-02-24T08:38:44.904Z,5.20
2023-02-24T08:41:20.394Z,4.83
2023-02-24T08:43:53.478Z,6.53
2023-02-24T08:46:27.238Z,3.77
2023-02-24T08:49:01.343Z,3.20
2023-02-24T08:51:36.214Z,5.43
2023-02-24T08:54:15.424Z,4.57
2023-02-24T08:56:55.677Z,7.63
2023-02-24T08:59:38.852Z,7.73
2023-02-24T09:02:27.226Z,3.77
2023-02-24T09:05:03.682Z,8.50
2023-02-24T09:07:40.964Z,6.47
2023-02-24T09:10:18.030Z,6.83
2023-02-24T09:12:53.524Z,7.67
2023-02-24T09:15:41.282Z,9.60
2023-02-24T09:18:15.301Z,8.00
2023-02-24T09:21:16.153Z,3.17
2023-02-24T09:23:50.496Z,3.83
2023-02-24T09:26:23.432Z,4.93
2023-02-24T09:28:59.011Z,3.27
2023-02-24T09:31:48.309Z,16.10
2023-02-24T09:34:30.127Z,7.03
2023-02-24T09:37:03.874Z,5.07
2023-02-24T09:39:51.997Z,4.27
2023-02-24T09:42:46.316Z,8.23
2023-02-24T09:45:35.936Z,3.90
2023-02-24T09:48:17.782Z,2.57
2023-02-24T09:51:05.214Z,5.43
2023-02-24T09:53:57.859Z,4.87
2023-02-24T09:56:37.088Z,4.57
2023-02-24T09:59:13.895Z,8.47
2023-02-24T10:01:48.425Z,6.27
2023-02-24T10:04:49.017Z,5.13
2023-02-24T10:07:25.490Z,5.87
2023-02-24T10:10:19.421Z,7.90
2023-02-24T10:12:58.306Z,4.67
2023-02-24T10:15:57.009Z,2.30
2023-02-24T10:18:31.867Z,6.63
2023-02-24T10:21:15.505Z,4.50
2023-02-24T10:23:56.803Z,2.90
2023-02-24T10:26:34.733Z,5.50
2023-02-24T10:29:18.925Z,5.83
2023-02-24T10:31:59.403Z,6.93
2023-02-24T10:34:32.760Z,4.37
2023-02-24T10:37:27.540Z,5.80
2023-02-24T10:40:09.487Z,6.03
2023-02-24T10:42:45.856Z,6.30
2023-02-24T10:45:23.867Z,2.60
2023-02-24T10:47:57.775Z,6.27
2023-02-24T10:50:37.481Z,9.87
2023-02-24T10:53:26.353Z,3.90
2023-02-24T10:56:20.616Z,5.73
2023-02-24T10:59:18.169Z,5.27
2023-02-24T11:01:59.182Z,4.70
2023-02-24T11:04:56.756Z,5.73
2023-02-24T11:07:44.084Z,5.43
2023-02-24T11:10:26.046Z,4.40
2023-02-24T11:13:17.332Z,5.77
2023-02-24T11:16:09.378Z,4.73
2023-02-24T11:18:47.789Z,4.37
2023-02-24T11:21:21.420Z,5.83
2023-02-24T11:23:55.615Z,2.93
2023-02-24T11:26:33.011Z,5.70
2023-02-24T11:29:15.279Z,3.87
2023-02-24T11:32:09.125Z,2.50
2023-02-24T11:34:49.422Z,6.40
2023-02-24T11:37:27.210Z,5.83
2023-02-24T11:40:01.998Z,4.63
2023-02-24T11:42:38.013Z,5.83
2023-02-24T11:45:17.398Z,7.10
2023-02-24T11:47:53.503Z,3.37
2023-02-24T11:50:39.608Z,4.30
2023-02-24T11:53:16.890Z,3.10
2023-02-24T11:55:52.861Z,3.03
2023-02-24T11:58:29.814Z,8.07
2023-02-24T12:01:04.922Z,6.17
2023-02-24T12:03:40.654Z,4.90
2023-02-24T12:06:17.955Z,7.27
2023-02-24T12:08:55.179Z,2.27
2023-02-24T12:11:33.759Z,3.33
2023-02-24T12:14:15.330Z,4.70
2023-02-24T12:16:50.096Z,4.93
2023-02-24T12:19:31.145Z,8.67
2023-02-24T12:22:09.929Z,4.80
2023-02-24T12:24:47.341Z,7.10
2023-02-24T12:27:28.592Z,5.30
2023-02-24T12:30:23.006Z,6.53
2023-02-24T12:33:01.857Z,4.50
2023-02-24T12:35:37.841Z,4.10
2023-02-24T12:38:20.311Z,4.87
2023-02-24T12:40:57.839Z,5.17
2023-02-24T12:43:33.668Z,3.80
2023-02-24T12:46:08.834Z,4.67
2023-02-24T12:48:59.610Z,6.57
2023-02-24T12:51:35.013Z,5.43
2023-02-24T12:54:13.613Z,4.63
2023-02-24T12:56:51.914Z,5.33
2023-02-24T12:59:28.459Z,6.70
2023-02-24T13:02:02.560Z,4.80
2023-02-24T13:04:39.217Z,6.50
2023-02-24T13:07:19.990Z,8.03
2023-02-24T13:10:01.595Z,3.40
2023-02-24T13:12:36.986Z,7.73
2023-02-24T13:15:17.100Z,4.87
2023-02-24T13:17:51.588Z,13.33
2023-02-24T13:20:27.010Z,3.77
2023-02-24T13:23:00.396Z,3.10
2023-02-24T13:25:37.004Z,5.73
2023-02-24T13:28:23.284Z,4.37
2023-02-24T13:30:59.892Z,5.53
2023-02-24T13:33:33.944Z,5.87
2023-02-24T13:36:09.500Z,6.47
2023-02-24T13:38:43.464Z,4.40
2023-02-24T13:41:23.683Z,3.10
2023-02-24T13:43:59.017Z,1.73
2023-02-24T13:46:34.995Z,3.90
2023-02-24T13:49:22.949Z,4.00
2023-02-24T13:52:01.223Z,3.03
2023-02-24T13:54:58.996Z,2.83
2023-02-24T13:57:42.912Z,4.80
2023-02-24T14:00:21.866Z,2.80
2023-02-24T14:02:55.315Z,2.00
2023-02-24T14:05:29.519Z,3.73
2023-02-24T14:08:03.222Z,4.03
2023-02-24T14:10:37.719Z,2.60
2023-02-24T14:13:17.335Z,3.60
2023-02-24T14:15:50.153Z,2.73
2023-02-24T14:18:24.222Z,3.00
2023-02-24T14:20:57.947Z,3.43
2023-02-24T14:23:32.179Z,2.60
2023-02-24T14:26:06.423Z,3.53
2023-02-24T14:28:41.402Z,3.20
2023-02-24T14:31:15.045Z,3.10
2023-02-24T14:33:47.926Z,3.37
2023-02-24T14:36:24.226Z,3.37
2023-02-24T14:39:01.155Z,3.00
2023-02-24T14:41:34.465Z,2.67
2023-02-24T14:44:18.764Z,2.77
2023-02-24T14:46:53.065Z,4.13
2023-02-24T14:49:27.224Z,2.67
2023-02-24T14:52:01.352Z,3.57
2023-02-24T14:54:40.102Z,3.70
2023-02-24T14:57:13.933Z,3.30
2023-02-24T14:59:50.133Z,3.83
2023-02-24T15:02:28.814Z,5.03
2023-02-24T15:05:03.587Z,2.87
2023-02-24T15:07:36.367Z,7.03
2023-02-24T15:10:18.582Z,2.90
2023-02-24T15:12:55.657Z,2.80
2023-02-24T15:15:31.424Z,4.10
2023-02-24T15:18:09.498Z,3.80
2023-02-24T15:20:42.240Z,2.80
2023-02-24T15:23:26.776Z,2.43
2023-02-24T15:25:59.732Z,3.17
2023-02-24T15:28:35.353Z,2.53
2023-02-24T15:31:16.610Z,2.60
2023-02-24T15:33:54.538Z,12.43
2023-02-24T15:36:29.177Z,5.90
2023-02-24T15:39:06.778Z,3.47
2023-02-24T15:41:40.846Z,2.83
2023-02-24T15:44:27.269Z,3.17
2023-02-24T15:47:20.155Z,2.90
2023-02-24T15:49:53.745Z,4.07
2023-02-24T15:52:27.481Z,6.37
2023-02-24T15:55:02.586Z,4.10
2023-02-24T15:57:41.417Z,3.80
2023-02-24T16:00:16.488Z,5.73
2023-02-24T16:02:52.885Z,3.87
2023-02-24T16:05:25.972Z,3.90
2023-02-24T16:07:58.776Z,4.37
2023-02-24T16:10:34.201Z,5.90
2023-02-24T16:13:06.899Z,3.00
2023-02-24T16:15:42.832Z,3.43
2023-02-24T16:18:21.957Z,3.23
2023-02-24T16:20:56.942Z,3.60
2023-02-24T16:23:29.812Z,3.20
2023-02-24T16:26:02.644Z,4.27
2023-02-24T16:28:35.558Z,3.70
2023-02-24T16:31:08.541Z,2.83
2023-02-24T16:33:54.094Z,4.47
2023-02-24T16:36:29.049Z,3.83
2023-02-24T16:39:01.941Z,4.43
2023-02-24T16:41:39.168Z,4.53
2023-02-24T16:44:11.928Z,7.63
2023-02-24T16:46:45.542Z,4.67
2023-02-24T16:49:20.911Z,5.50
2023-02-24T16:51:53.714Z,7.23
2023-02-24T16:54:29.147Z,5.90
2023-02-24T16:57:02.032Z,5.07
2023-02-24T16:59:34.805Z,5.10
2023-02-24T17:02:07.848Z,5.47
2023-02-24T17:04:42.021Z,3.37
2023-02-24T17:07:16.177Z,5.80
2023-02-24T17:09:48.990Z,6.70
2023-02-24T17:12:22.292Z,5.43
2023-02-24T17:14:54.951Z,6.60
2023-02-24T17:17:30.572Z,7.13
2023-02-24T17:20:04.966Z,5.63
2023-02-24T17:22:37.832Z,6.97
2023-02-24T17:25:13.501Z,7.50
2023-02-24T17:27:46.256Z,4.20
2023-02-24T17:30:19.788Z,5.10
2023-02-24T17:32:52.595Z,8.53
2023-02-24T17:35:27.024Z,7.17
2023-02-24T17:37:59.769Z,8.47
2023-02-24T17:40:35.089Z,7.80
2023-02-24T17:43:07.752Z,6.33
2023-02-24T17:45:44.296Z,11.07
2023-02-24T17:48:17.222Z,9.57
2023-02-24T17:50:52.102Z,8.67
2023-02-24T17:53:25.861Z,10.97
2023-02-24T17:56:03.188Z,7.30
2023-02-24T17:58:36.292Z,10.27
2023-02-24T18:01:09.411Z,9.93
2023-02-24T18:03:42.256Z,11.90
2023-02-24T18:06:16.417Z,10.60
2023-02-24T18:08:49.148Z,10.00
2023-02-24T18:11:21.960Z,11.73
2023-02-24T18:14:00.397Z,10.67
2023-02-24T18:16:33.408Z,10.63
2023-02-24T18:19:06.294Z,12.43
2023-02-24T18:21:40.482Z,14.50
2023-02-24T18:24:13.602Z,15.30
2023-02-24T18:26:49.369Z,11.47
2023-02-24T18:29:22.113Z,16.10
2023-02-24T18:31:55.052Z,13.83
2023-02-24T18:34:27.989Z,13.33
2023-02-24T18:37:02.022Z,16.27
2023-02-24T18:39:37.363Z,14.33
2023-02-24T18:42:11.647Z,14.67
2023-02-24T18:44:44.280Z,14.60
2023-02-24T18:47:19.941Z,13.87
2023-02-24T18:49:52.754Z,13.90
2023-02-24T18:52:26.889Z,13.97
2023-02-24T18:55:02.492Z,16.73
2023-02-24T18:57:35.313Z,12.07
2023-02-24T19:00:08.692Z,17.03
2023-02-24T19:02:41.600Z,13.33
2023-02-24T19:05:14.302Z,21.30
2023-02-24T19:07:51.040Z,15.70
2023-02-24T19:10:23.818Z,18.40
2023-02-24T19:12:56.539Z,15.90
2023-02-24T19:15:29.193Z,14.23
2023-02-24T19:18:03.315Z,16.67
2023-02-24T19:20:36.047Z,15.20
2023-02-24T19:23:10.194Z,16.13
2023-02-24T19:25:42.871Z,17.50
2023-02-24T19:28:16.306Z,16.07
2023-02-24T19:30:49.208Z,16.13
2023-02-24T19:33:22.142Z,17.53
2023-02-24T19:35:59.429Z,13.53
2023-02-24T19:38:34.003Z,17.33
2023-02-24T19:41:06.892Z,18.47
2023-02-24T19:43:43.932Z,17.97
2023-02-24T19:46:16.950Z,17.37
2023-02-24T19:48:49.737Z,13.93
2023-02-24T19:51:23.346Z,15.33
2023-02-24T19:53:58.362Z,17.77
2023-02-24T19:56:31.978Z,17.80
2023-02-24T19:59:05.619Z,15.73
2023-02-24T20:01:38.468Z,15.10
2023-02-24T20:04:12.780Z,14.77
2023-02-24T20:06:45.884Z,18.87
2023-02-24T20:09:22.698Z,17.57
2023-02-24T20:11:57.256Z,16.80
2023-02-24T20:14:30.589Z,17.23
2023-02-24T20:17:05.981Z,15.63
2023-02-24T20:19:38.766Z,14.30
2023-02-24T20:22:13.925Z,18.33
2023-02-24T20:24:48.403Z,14.53
2023-02-24T20:27:21.046Z,13.33
2023-02-24T20:29:55.767Z,13.63
2023-02-24T20:32:28.711Z,14.10
2023-02-24T20:35:01.597Z,8.97
2023-02-24T20:37:34.591Z,15.93
2023-02-24T20:40:12.601Z,14.70
2023-02-24T20:42:45.343Z,15.73
2023-02-24T20:45:18.250Z,15.63
2023-02-24T20:47:50.950Z,21.30
2023-02-24T20:50:23.686Z,17.43
2023-02-24T20:52:56.492Z,15.43
2023-02-24T20:55:32.765Z,13.63
2023-02-24T20:58:05.789Z,20.80
2023-02-24T21:00:41.224Z,15.47
2023-02-24T21:03:13.932Z,10.00
2023-02-24T21:05:48.134Z,16.57
2023-02-24T21:08:20.878Z,16.23
2023-02-24T21:10:54.996Z,21.50
2023-02-24T21:13:27.732Z,19.40
2023-02-24T21:16:01.112Z,17.97
2023-02-24T21:18:34.817Z,17.50
2023-02-24T21:21:14.819Z,13.10
2023-02-24T21:23:47.959Z,11.93
2023-02-24T21:26:23.186Z,18.93
2023-02-24T21:28:59.249Z,19.23
2023-02-24T21:31:31.991Z,12.67
2023-02-24T21:34:04.921Z,18.47
2023-02-24T21:36:37.660Z,17.90
2023-02-24T21:39:14.376Z,18.50
2023-02-24T21:41:53.045Z,19.23
2023-02-24T21:44:25.792Z,14.27
2023-02-24T21:46:58.457Z,17.97
2023-02-24T21:49:34.466Z,19.27
2023-02-24T21:52:09.339Z,20.67
2023-02-24T21:54:43.032Z,18.23
2023-02-24T21:57:17.412Z,17.63
2023-02-24T21:59:50.235Z,20.40
2023-02-24T22:02:23.512Z,16.00
2023-02-24T22:04:56.385Z,20.13
2023-02-24T22:07:29.267Z,18.57
2023-02-24T22:10:01.916Z,14.37
2023-02-24T22:12:35.948Z,19.30
2023-02-24T22:15:09.285Z,16.07
2023-02-24T22:17:42.224Z,18.93
2023-02-24T22:20:15.330Z,16.77
2023-02-24T22:22:48.031Z,12.90
2023-02-24T22:25:20.932Z,14.80
2023-02-24T22:27:55.128Z,8.53
2023-02-24T22:30:27.996Z,11.63
2023-02-24T22:33:00.623Z,12.73
2023-02-24T22:35:34.458Z,15.17
2023-02-24T22:38:07.190Z,15.07
2023-02-24T22:40:39.855Z,9.70
2023-02-24T22:43:13.908Z,16.33
2023-02-24T22:45:56.004Z,14.07
2023-02-24T22:48:31.251Z,15.13
2023-02-24T22:51:05.614Z,11.90
2023-02-24T22:53:40.531Z,10.33
2023-02-24T22:56:13.917Z,15.37
2023-02-24T22:58:48.257Z,11.83
2023-02-24T23:01:22.552Z,12.73
2023-02-24T23:03:55.312Z,12.43
2023-02-24T23:06:28.188Z,13.90
2023-02-24T23:09:04.756Z,9.07
2023-02-24T23:11:38.971Z,12.67
2023-02-24T23:14:14.407Z,8.00
2023-02-24T23:16:53.399Z,6.20
2023-02-24T23:19:26.185Z,15.00
2023-02-24T23:21:58.888Z,8.30
2023-02-24T23:24:31.600Z,7.53
2023-02-24T23:27:06.025Z,11.13
2023-02-24T23:29:40.900Z,9.03
2023-02-24T23:32:13.641Z,12.57
2023-02-24T23:34:46.854Z,4.83
2023-02-24T23:37:22.362Z,4.47
2023-02-24T23:39:55.429Z,13.93
2023-02-24T23:42:29.005Z,7.23
2023-02-24T23:45:03.904Z,8.63
2023-02-24T23:47:37.560Z,11.23
2023-02-24T23:50:11.218Z,8.83
2023-02-24T23:52:44.166Z,6.87
2023-02-24T23:55:16.980Z,7.33
2023-02-24T23:57:49.702Z,9.63
